Time;durP1;ratioP1;P1;durP2;ratioP2;P2;SDS_P1;SDS_P2;PMS_P1;PMS_P2;Temp;Humidity;BMP_temperature;BMP_pressure;BME280_temperature;BME280_humidity;BME280_pressure;Samples;Min_cycle;Max_cycle;Signal;HPM_P1;HPM_P2
2023/06/27 00:00:33;;;;;;;;;;;17.50;45.60;;;;;;6305259;22;19903;-75
2023/06/27 00:02:59;;;;;;;;;;;17.40;45.60;;;;;;6306770;22;20034;-76
2023/06/27 00:05:24;;;;;;;;;;;17.30;45.70;;;;;;6306577;22;19961;-75
2023/06/27 00:07:50;;;;;;;;;;;17.30;45.80;;;;;;6306696;22;19956;-75
2023/06/27 00:10:15;;;;;;;;;;;17.20;45.90;;;;;;6306430;22;20437;-75
2023/06/27 00:12:40;;;;;;;;;;;17.20;46.00;;;;;;6307036;22;19926;-75
2023/06/27 00:15:06;;;;;;;;;;;17.10;46.20;;;;;;6278702;22;19903;-75
2023/06/27 00:17:37;;;;;;;;;;;17.10;46.30;;;;;;6306595;22;19903;-76
2023/06/27 00:20:02;;;;;;;;;;;17.00;46.40;;;;;;6306506;22;19922;-75
2023/06/27 00:22:29;;;;;;;;;;;17.00;46.40;;;;;;6279057;22;19934;-76
2023/06/27 00:24:54;;;;;;;;;;;17.00;46.50;;;;;;6307202;22;19918;-75
2023/06/27 00:27:20;;;;;;;;;;;16.90;46.50;;;;;;6306562;22;19907;-75
2023/06/27 00:29:45;;;;;;;;;;;16.80;46.60;;;;;;6306828;22;20303;-75
2023/06/27 00:32:11;;;;;;;;;;;16.80;46.60;;;;;;6306505;22;19906;-75
2023/06/27 00:34:37;;;;;;;;;;;16.80;46.80;;;;;;6307187;22;19911;-76
2023/06/27 00:37:02;;;;;;;;;;;16.80;46.90;;;;;;6306451;22;19907;-75
2023/06/27 00:39:28;;;;;;;;;;;16.70;46.90;;;;;;6305479;22;19911;-75
2023/06/27 00:41:53;;;;;;;;;;;16.70;47.00;;;;;;6306323;22;20336;-75
2023/06/27 00:44:18;;;;;;;;;;;16.70;47.20;;;;;;6307080;22;19911;-75
2023/06/27 00:46:46;;;;;;;;;;;16.70;47.20;;;;;;6305978;22;20371;-75
2023/06/27 00:49:11;;;;;;;;;;;16.70;47.20;;;;;;6306672;22;20300;-75
2023/06/27 00:51:40;;;;;;;;;;;16.70;47.30;;;;;;6306306;22;19903;-77
2023/06/27 00:54:06;;;;;;;;;;;16.60;47.30;;;;;;6306787;22;20328;-75
2023/06/27 00:56:32;;;;;;;;;;;16.60;47.30;;;;;;6306296;22;19918;-76
2023/06/27 00:58:59;;;;;;;;;;;16.60;47.40;;;;;;6306685;22;19918;-75
2023/06/27 01:01:25;;;;;;;;;;;16.50;47.40;;;;;;6306777;22;19914;-71
2023/06/27 01:03:51;;;;;;;;;;;16.50;47.60;;;;;;6307118;22;20317;-71
2023/06/27 01:06:30;;;;;;;;;;;16.50;47.80;;;;;;6306341;22;19907;-71
2023/06/27 01:08:59;;;;;;;;;;;16.50;47.90;;;;;;6306975;22;19915;-72
2023/06/27 01:11:27;;;;;;;;;;;16.40;48.00;;;;;;6306616;22;19903;-71
2023/06/27 01:13:56;;;;;;;;;;;16.40;48.20;;;;;;6306771;22;20221;-70
2023/06/27 01:16:23;;;;;;;;;;;16.30;48.20;;;;;;6278746;22;20221;-70
2023/06/27 01:18:50;;;;;;;;;;;16.40;48.30;;;;;;6306077;22;20321;-70
2023/06/27 01:21:20;;;;;;;;;;;16.30;48.40;;;;;;6306133;22;20373;-70
2023/06/27 01:23:55;;;;;;;;;;;16.30;48.60;;;;;;6306649;22;19915;-70
2023/06/27 01:26:21;;;;;;;;;;;16.30;48.80;;;;;;6305939;22;20225;-70
2023/06/27 01:28:46;;;;;;;;;;;16.30;49.00;;;;;;6306504;22;19918;-70
2023/06/27 01:31:31;;;;;;;;;;;16.20;49.10;;;;;;6306080;22;19903;-70
2023/06/27 01:34:19;;;;;;;;;;;16.20;49.20;;;;;;6306761;22;19989;-72
2023/06/27 01:36:53;;;;;;;;;;;16.10;49.40;;;;;;6285513;22;20236;-71
2023/06/27 01:39:21;;;;;;;;;;;16.10;49.50;;;;;;6306424;22;19910;-70
2023/06/27 01:41:48;;;;;;;;;;;16.10;49.40;;;;;;6278599;22;19998;-70
2023/06/27 01:44:15;;;;;;;;;;;16.00;49.40;;;;;;6306384;22;19911;-70
2023/06/27 01:46:41;;;;;;;;;;;16.00;49.30;;;;;;6305669;22;19930;-70
2023/06/27 01:49:07;;;;;;;;;;;16.00;49.50;;;;;;6278485;22;19910;-71
2023/06/27 01:51:32;;;;;;;;;;;16.00;49.60;;;;;;6306006;22;19903;-70
2023/06/27 01:53:58;;;;;;;;;;;16.00;49.60;;;;;;6305976;22;19911;-71
2023/06/27 01:56:24;;;;;;;;;;;15.90;49.60;;;;;;6306090;22;20319;-77
2023/06/27 01:58:49;;;;;;;;;;;15.90;49.60;;;;;;6306055;22;19942;-78
2023/06/27 02:01:14;;;;;;;;;;;15.80;49.70;;;;;;6305524;22;20236;-77
2023/06/27 02:03:40;;;;;;;;;;;15.80;49.80;;;;;;6278446;22;19912;-77
2023/06/27 02:06:05;;;;;;;;;;;15.80;49.90;;;;;;6305509;22;20314;-78
2023/06/27 02:08:31;;;;;;;;;;;15.80;49.90;;;;;;6306062;22;20317;-78
2023/06/27 02:10:56;;;;;;;;;;;15.80;50.10;;;;;;6305357;22;20245;-78
2023/06/27 02:13:22;;;;;;;;;;;15.80;50.30;;;;;;6305523;22;19911;-79
2023/06/27 02:15:47;;;;;;;;;;;15.80;50.40;;;;;;6305623;22;19902;-78
2023/06/27 02:18:13;;;;;;;;;;;15.80;50.40;;;;;;6305663;22;19911;-79
2023/06/27 02:20:38;;;;;;;;;;;15.80;50.40;;;;;;6305726;22;19949;-76
2023/06/27 02:23:03;;;;;;;;;;;15.70;50.50;;;;;;6305470;22;19967;-79
2023/06/27 02:25:29;;;;;;;;;;;15.70;50.60;;;;;;6305396;22;19911;-79
2023/06/27 02:27:54;;;;;;;;;;;15.70;50.70;;;;;;6305541;22;19969;-78
2023/06/27 02:30:20;;;;;;;;;;;15.70;50.80;;;;;;6305109;22;20218;-79
2023/06/27 02:32:45;;;;;;;;;;;15.70;50.90;;;;;;6305614;22;20317;-78
2023/06/27 02:35:15;;;;;;;;;;;15.70;50.90;;;;;;6305379;22;19977;-77
2023/06/27 02:37:40;;;;;;;;;;;15.60;51.10;;;;;;6305096;22;19910;-74
2023/06/27 02:40:06;;;;;;;;;;;15.60;51.40;;;;;;6305410;22;19903;-78
2023/06/27 02:42:32;;;;;;;;;;;15.50;51.50;;;;;;6304244;22;19941;-76
2023/06/27 02:44:57;;;;;;;;;;;15.50;51.50;;;;;;6304978;22;19911;-79
2023/06/27 02:47:23;;;;;;;;;;;15.50;51.50;;;;;;6305111;22;19913;-77
2023/06/27 02:49:48;;;;;;;;;;;15.50;51.50;;;;;;6305423;22;19911;-77
2023/06/27 02:52:13;;;;;;;;;;;15.50;51.70;;;;;;6277686;22;20241;-76
2023/06/27 02:54:39;;;;;;;;;;;15.50;51.70;;;;;;6305943;22;19984;-77
2023/06/27 02:57:04;;;;;;;;;;;15.60;51.80;;;;;;6305503;22;20280;-77
2023/06/27 02:59:30;;;;;;;;;;;15.60;51.90;;;;;;6305725;22;19910;-77
2023/06/27 03:01:55;;;;;;;;;;;15.60;51.90;;;;;;6305369;22;19938;-77
2023/06/27 03:04:24;;;;;;;;;;;15.50;51.90;;;;;;6278109;22;20318;-77
2023/06/27 03:06:50;;;;;;;;;;;15.50;51.80;;;;;;6305156;22;20044;-77
2023/06/27 03:09:16;;;;;;;;;;;15.60;52.00;;;;;;6277892;22;19938;-76
2023/06/27 03:11:41;;;;;;;;;;;15.60;52.10;;;;;;6305740;22;19910;-76
2023/06/27 03:14:07;;;;;;;;;;;15.50;51.90;;;;;;6305715;22;20309;-76
2023/06/27 03:16:32;;;;;;;;;;;15.60;51.90;;;;;;6305221;22;19911;-77
2023/06/27 03:18:58;;;;;;;;;;;15.60;52.00;;;;;;6305642;22;19906;-76
2023/06/27 03:21:23;;;;;;;;;;;15.60;52.10;;;;;;6305208;22;19907;-77
2023/06/27 03:23:48;;;;;;;;;;;15.60;52.10;;;;;;6305532;22;19942;-76
2023/06/27 03:26:14;;;;;;;;;;;15.70;52.30;;;;;;6305333;22;19910;-77
2023/06/27 03:28:40;;;;;;;;;;;15.80;52.50;;;;;;6305564;22;19911;-77
2023/06/27 03:31:05;;;;;;;;;;;15.90;52.60;;;;;;6305171;22;20245;-77
2023/06/27 03:33:31;;;;;;;;;;;16.10;52.70;;;;;;6304886;22;19907;-77
2023/06/27 03:35:56;;;;;;;;;;;16.20;52.70;;;;;;6305011;22;19907;-77
2023/06/27 03:38:22;;;;;;;;;;;16.40;52.70;;;;;;6305242;22;19918;-77
2023/06/27 03:40:47;;;;;;;;;;;16.70;52.80;;;;;;6306522;22;19907;-77
2023/06/27 03:43:16;;;;;;;;;;;16.80;52.90;;;;;;6307096;22;19907;-78
2023/06/27 03:45:42;;;;;;;;;;;17.10;52.90;;;;;;6307111;22;19907;-77
2023/06/27 03:48:07;;;;;;;;;;;17.30;52.90;;;;;;6306591;22;19918;-77
2023/06/27 03:50:33;;;;;;;;;;;17.70;52.90;;;;;;6306408;22;19933;-77
2023/06/27 03:53:01;;;;;;;;;;;18.00;52.80;;;;;;6306830;22;19982;-77
2023/06/27 03:55:26;;;;;;;;;;;18.30;52.70;;;;;;6306669;22;20325;-77
2023/06/27 03:57:52;;;;;;;;;;;18.60;52.60;;;;;;6306778;22;19926;-77
2023/06/27 04:00:17;;;;;;;;;;;19.00;52.50;;;;;;6306635;22;19910;-77
2023/06/27 04:02:43;;;;;;;;;;;19.30;52.40;;;;;;6306776;22;19926;-78
2023/06/27 04:05:08;;;;;;;;;;;19.80;52.20;;;;;;6306889;22;19925;-77
2023/06/27 04:07:34;;;;;;;;;;;20.20;52.00;;;;;;6306522;22;19907;-77
2023/06/27 04:09:59;;;;;;;;;;;20.50;51.60;;;;;;6306067;22;19953;-77
2023/06/27 04:12:25;;;;;;;;;;;20.90;51.30;;;;;;6279420;22;19952;-76
2023/06/27 04:14:50;;;;;;;;;;;21.30;50.90;;;;;;6307483;22;19915;-77
2023/06/27 04:17:16;;;;;;;;;;;21.80;50.50;;;;;;6306770;22;19974;-76
2023/06/27 04:19:41;;;;;;;;;;;22.10;50.10;;;;;;6307283;22;19911;-77
2023/06/27 04:22:06;;;;;;;;;;;22.50;49.50;;;;;;6306452;22;20228;-76
2023/06/27 04:24:32;;;;;;;;;;;22.90;48.60;;;;;;6306990;22;19991;-76
2023/06/27 04:26:57;;;;;;;;;;;23.30;47.90;;;;;;6306721;22;19947;-75
2023/06/27 04:29:23;;;;;;;;;;;23.50;46.80;;;;;;6307217;22;19907;-76
2023/06/27 04:31:49;;;;;;;;;;;23.80;45.80;;;;;;6279197;22;19907;-76
2023/06/27 04:34:14;;;;;;;;;;;24.20;45.30;;;;;;6306874;22;20474;-75
2023/06/27 04:36:41;;;;;;;;;;;24.40;44.80;;;;;;6307023;22;19914;-76
2023/06/27 04:39:07;;;;;;;;;;;24.70;44.10;;;;;;6307032;22;19907;-75
2023/06/27 04:41:33;;;;;;;;;;;25.10;43.90;;;;;;6306377;22;20249;-76
2023/06/27 04:43:59;;;;;;;;;;;25.50;42.90;;;;;;6306629;22;19945;-76
2023/06/27 04:46:28;;;;;;;;;;;25.80;42.80;;;;;;6305721;22;20261;-75
2023/06/27 04:48:57;;;;;;;;;;;26.20;42.40;;;;;;6306413;22;19945;-76
2023/06/27 04:51:23;;;;;;;;;;;26.70;41.60;;;;;;6306286;22;19915;-76
2023/06/27 04:53:48;;;;;;;;;;;27.00;40.60;;;;;;6306172;22;19914;-76
2023/06/27 04:56:14;;;;;;;;;;;27.30;40.30;;;;;;6279075;22;20329;-75
2023/06/27 04:58:39;;;;;;;;;;;27.80;40.10;;;;;;6306605;22;19918;-75
2023/06/27 05:01:04;;;;;;;;;;;28.20;39.50;;;;;;6306268;22;20225;-75
2023/06/27 05:03:30;;;;;;;;;;;28.50;38.60;;;;;;6306805;22;19922;-76
2023/06/27 05:05:56;;;;;;;;;;;28.90;37.30;;;;;;6306154;22;19907;-75
2023/06/27 05:08:21;;;;;;;;;;;29.20;36.20;;;;;;6306756;22;20327;-75
2023/06/27 05:10:47;;;;;;;;;;;29.50;36.60;;;;;;6278810;22;19953;-74
2023/06/27 05:13:12;;;;;;;;;;;29.80;36.10;;;;;;6306348;22;19960;-75
2023/06/27 05:15:38;;;;;;;;;;;30.20;35.90;;;;;;6306319;22;19907;-75
2023/06/27 05:18:06;;;;;;;;;;;30.60;35.30;;;;;;6279352;22;19942;-76
2023/06/27 05:20:31;;;;;;;;;;;30.90;34.90;;;;;;6306124;22;19948;-76
2023/06/27 05:22:57;;;;;;;;;;;31.30;34.30;;;;;;6306117;22;19946;-77
2023/06/27 05:25:22;;;;;;;;;;;31.60;33.50;;;;;;6306201;22;20291;-76
2023/06/27 05:27:48;;;;;;;;;;;31.80;33.20;;;;;;6278606;22;20345;-76
2023/06/27 05:30:13;;;;;;;;;;;32.20;32.90;;;;;;6306214;22;19910;-76
2023/06/27 05:32:39;;;;;;;;;;;32.50;32.00;;;;;;6306325;22;20305;-76
2023/06/27 05:35:04;;;;;;;;;;;32.70;31.60;;;;;;6306312;22;20241;-77
2023/06/27 05:37:30;;;;;;;;;;;33.00;31.30;;;;;;6305901;22;19906;-76
2023/06/27 05:39:55;;;;;;;;;;;33.20;30.70;;;;;;6306468;22;19911;-76
2023/06/27 05:42:21;;;;;;;;;;;33.40;30.30;;;;;;6278541;22;19907;-76
2023/06/27 05:44:46;;;;;;;;;;;33.70;29.80;;;;;;6306248;22;19907;-76
2023/06/27 05:47:13;;;;;;;;;;;33.90;29.50;;;;;;6305827;22;20013;-76
2023/06/27 05:49:38;;;;;;;;;;;34.20;29.50;;;;;;6306496;22;20206;-75
2023/06/27 05:52:04;;;;;;;;;;;34.50;29.20;;;;;;6306068;22;19953;-78
2023/06/27 05:54:29;;;;;;;;;;;34.80;28.80;;;;;;6304898;22;19910;-77
2023/06/27 05:56:55;;;;;;;;;;;35.10;28.40;;;;;;6305671;22;19972;-76
2023/06/27 05:59:21;;;;;;;;;;;35.30;27.80;;;;;;6305796;22;19985;-76
2023/06/27 06:01:46;;;;;;;;;;;35.60;27.90;;;;;;6304362;22;19906;-77
2023/06/27 06:04:13;;;;;;;;;;;35.80;27.40;;;;;;6304886;22;22257;-77
2023/06/27 06:06:39;;;;;;;;;;;36.20;27.50;;;;;;6305119;22;19989;-77
2023/06/27 06:09:05;;;;;;;;;;;36.40;26.90;;;;;;6305615;22;19953;-77
2023/06/27 06:11:31;;;;;;;;;;;36.70;26.30;;;;;;6303774;22;20256;-73
2023/06/27 06:13:56;;;;;;;;;;;36.90;26.20;;;;;;6305111;22;19917;-77
2023/06/27 06:16:22;;;;;;;;;;;37.20;25.90;;;;;;6305828;22;19903;-77
2023/06/27 06:18:48;;;;;;;;;;;37.40;25.20;;;;;;6306101;22;19985;-77
2023/06/27 06:21:13;;;;;;;;;;;37.50;25.10;;;;;;6304318;22;19903;-77
2023/06/27 06:23:38;;;;;;;;;;;37.70;25.00;;;;;;6299970;22;19910;-76
2023/06/27 06:26:04;;;;;;;;;;;37.80;24.40;;;;;;6303758;22;20159;-77
2023/06/27 06:28:29;;;;;;;;;;;38.10;24.50;;;;;;6299097;22;19915;-77
2023/06/27 06:30:55;;;;;;;;;;;38.30;24.10;;;;;;6304319;22;19907;-77
2023/06/27 06:33:21;;;;;;;;;;;38.50;23.80;;;;;;6303943;22;19918;-77
2023/06/27 06:35:47;;;;;;;;;;;38.60;23.70;;;;;;6300843;22;20392;-77
2023/06/27 06:38:12;;;;;;;;;;;38.80;23.60;;;;;;6305327;22;19918;-76
2023/06/27 06:40:38;;;;;;;;;;;39.00;23.30;;;;;;6305506;22;20279;-77
2023/06/27 06:43:03;;;;;;;;;;;39.10;22.90;;;;;;6305326;22;19911;-76
2023/06/27 06:45:29;;;;;;;;;;;39.20;22.90;;;;;;6305325;22;20385;-76
2023/06/27 06:47:54;;;;;;;;;;;39.40;22.70;;;;;;6305223;22;20233;-76
2023/06/27 06:50:20;;;;;;;;;;;39.60;22.40;;;;;;6305275;22;20340;-76
2023/06/27 06:52:45;;;;;;;;;;;39.70;22.20;;;;;;6305265;22;19914;-76
2023/06/27 06:55:11;;;;;;;;;;;39.80;22.20;;;;;;6304501;22;19918;-76
2023/06/27 06:57:36;;;;;;;;;;;39.80;22.20;;;;;;6302815;22;19925;-75
2023/06/27 07:00:04;;;;;;;;;;;40.00;22.00;;;;;;6276630;22;19910;-76
2023/06/27 07:02:29;;;;;;;;;;;40.10;22.00;;;;;;6300391;22;19979;-73
2023/06/27 07:04:54;;;;;;;;;;;40.30;22.20;;;;;;6305535;22;19954;-75
2023/06/27 07:07:23;;;;;;;;;;;40.70;21.90;;;;;;6304880;22;19907;-77
2023/06/27 07:09:48;;;;;;;;;;;40.80;21.50;;;;;;6277745;22;20313;-76
2023/06/27 07:12:13;;;;;;;;;;;41.00;21.30;;;;;;6301379;22;20369;-77
2023/06/27 07:14:39;;;;;;;;;;;41.20;21.00;;;;;;6305728;22;19994;-76
2023/06/27 07:17:04;;;;;;;;;;;41.30;21.00;;;;;;6307074;22;20245;-76
2023/06/27 07:19:30;;;;;;;;;;;41.40;20.40;;;;;;6308028;22;20329;-76
2023/06/27 07:21:56;;;;;;;;;;;41.30;20.30;;;;;;6276219;22;19985;-75
2023/06/27 07:24:21;;;;;;;;;;;41.40;20.30;;;;;;6307426;22;19942;-76
2023/06/27 07:26:47;;;;;;;;;;;41.50;20.40;;;;;;6306219;22;19911;-77
2023/06/27 07:29:12;;;;;;;;;;;41.70;20.20;;;;;;6306788;22;19911;-76
2023/06/27 07:31:37;;;;;;;;;;;41.80;20.00;;;;;;6304516;22;19903;-76
2023/06/27 07:34:03;;;;;;;;;;;41.90;19.90;;;;;;6308193;22;19911;-76
2023/06/27 07:36:28;;;;;;;;;;;42.10;19.60;;;;;;6307497;22;19924;-77
2023/06/27 07:38:58;;;;;;;;;;;42.30;19.40;;;;;;6307393;22;19968;-75
2023/06/27 07:41:24;;;;;;;;;;;42.40;19.30;;;;;;6306575;22;20248;-75
2023/06/27 07:43:49;;;;;;;;;;;42.50;18.60;;;;;;6304185;22;19911;-76
2023/06/27 07:46:14;;;;;;;;;;;42.50;18.80;;;;;;6306537;22;19918;-76
2023/06/27 07:48:40;;;;;;;;;;;42.40;18.80;;;;;;6306457;22;19934;-76
2023/06/27 07:51:05;;;;;;;;;;;42.40;18.90;;;;;;6306733;22;19907;-74
2023/06/27 07:53:31;;;;;;;;;;;42.50;19.00;;;;;;6304931;22;20000;-74
2023/06/27 07:55:57;;;;;;;;;;;42.70;17.20;;;;;;6306179;22;19914;-74
2023/06/27 07:58:22;;;;;;;;;;;42.40;17.60;;;;;;6306775;22;19911;-74
2023/06/27 08:00:48;;;;;;;;;;;42.40;17.80;;;;;;6306321;22;19910;-74
2023/06/27 08:03:13;;;;;;;;;;;42.50;17.80;;;;;;6302839;22;19914;-74
2023/06/27 08:05:39;;;;;;;;;;;42.40;17.50;;;;;;6306523;22;19907;-74
2023/06/27 08:08:04;;;;;;;;;;;42.20;17.70;;;;;;6306159;22;19915;-73
2023/06/27 08:10:30;;;;;;;;;;;42.20;17.80;;;;;;6306684;22;19907;-73
2023/06/27 08:12:55;;;;;;;;;;;42.30;17.50;;;;;;6302011;22;19911;-73
2023/06/27 08:15:22;;;;;;;;;;;42.30;17.30;;;;;;6279239;22;19903;-74
2023/06/27 08:17:47;;;;;;;;;;;42.20;17.00;;;;;;6305903;22;20083;-72
2023/06/27 08:20:13;;;;;;;;;;;42.20;17.40;;;;;;6306512;22;19935;-72
2023/06/27 08:22:38;;;;;;;;;;;42.50;17.30;;;;;;6303264;22;19903;-73
2023/06/27 08:25:04;;;;;;;;;;;42.70;17.60;;;;;;6305750;22;19903;-73
2023/06/27 08:27:39;;;;;;;;;;;42.90;17.20;;;;;;6305566;22;20283;-76
2023/06/27 08:30:05;;;;;;;;;;;43.10;16.90;;;;;;6306457;22;20386;-75
2023/06/27 08:32:30;;;;;;;;;;;42.90;16.60;;;;;;6302085;22;19907;-75
2023/06/27 08:34:58;;;;;;;;;;;42.60;16.60;;;;;;6305420;22;20218;-75
2023/06/27 08:37:23;;;;;;;;;;;42.20;16.60;;;;;;6305908;22;19910;-74
2023/06/27 08:39:51;;;;;;;;;;;42.00;16.70;;;;;;6305968;22;19938;-74
2023/06/27 08:42:17;;;;;;;;;;;41.60;17.00;;;;;;6302804;22;19907;-74
2023/06/27 08:44:43;;;;;;;;;;;41.30;17.20;;;;;;6306637;22;20316;-74
2023/06/27 08:47:09;;;;;;;;;;;40.80;17.40;;;;;;6304905;22;20251;-75
2023/06/27 08:49:35;;;;;;;;;;;40.30;17.70;;;;;;6305115;22;19907;-74
2023/06/27 08:52:01;;;;;;;;;;;40.00;17.90;;;;;;6302850;22;19965;-74
2023/06/27 08:54:37;;;;;;;;;;;39.70;18.00;;;;;;6305785;22;19986;-74
2023/06/27 08:57:03;;;;;;;;;;;39.40;18.30;;;;;;6305340;22;20345;-74
2023/06/27 08:59:31;;;;;;;;;;;39.30;18.70;;;;;;6305422;22;20236;-76
2023/06/27 09:01:58;;;;;;;;;;;39.20;18.80;;;;;;6302122;22;19911;-75
2023/06/27 09:04:23;;;;;;;;;;;39.20;18.80;;;;;;6304857;22;19906;-75
2023/06/27 09:06:49;;;;;;;;;;;39.10;18.80;;;;;;6305592;22;19915;-73
2023/06/27 09:09:15;;;;;;;;;;;39.20;19.00;;;;;;6306414;22;19910;-74
2023/06/27 09:11:42;;;;;;;;;;;39.30;19.10;;;;;;6304622;22;19953;-76
2023/06/27 09:14:08;;;;;;;;;;;39.70;19.20;;;;;;6304288;22;19985;-74
2023/06/27 09:16:34;;;;;;;;;;;39.80;18.30;;;;;;6305344;22;19987;-76
2023/06/27 09:18:59;;;;;;;;;;;39.60;18.30;;;;;;6305568;22;19903;-75
2023/06/27 09:21:26;;;;;;;;;;;39.20;18.80;;;;;;6304940;22;19922;-75
2023/06/27 09:23:52;;;;;;;;;;;39.00;18.50;;;;;;6303632;22;20325;-75
2023/06/27 09:26:18;;;;;;;;;;;39.00;18.70;;;;;;6306216;22;19915;-75
2023/06/27 09:28:45;;;;;;;;;;;39.20;18.70;;;;;;6305919;22;19926;-74
2023/06/27 09:31:10;;;;;;;;;;;39.50;18.70;;;;;;6305976;22;19949;-74
2023/06/27 09:33:36;;;;;;;;;;;39.70;18.10;;;;;;6301075;22;20321;-75
2023/06/27 09:36:02;;;;;;;;;;;39.40;17.60;;;;;;6306306;22;20245;-74
2023/06/27 09:38:30;;;;;;;;;;;38.80;17.90;;;;;;6276702;22;19903;-74
2023/06/27 09:41:03;;;;;;;;;;;38.40;18.80;;;;;;6275922;22;19915;-74
2023/06/27 09:43:30;;;;;;;;;;;38.50;19.10;;;;;;6300263;22;19914;-74
2023/06/27 09:45:59;;;;;;;;;;;38.40;18.80;;;;;;6305809;22;19947;-75
2023/06/27 09:48:25;;;;;;;;;;;38.10;19.20;;;;;;6304987;22;19907;-73
2023/06/27 09:50:57;;;;;;;;;;;37.80;19.30;;;;;;6303606;22;19918;-74
2023/06/27 09:53:23;;;;;;;;;;;37.40;19.60;;;;;;6272780;22;19903;-74
2023/06/27 09:55:48;;;;;;;;;;;37.00;20.00;;;;;;6304771;22;19922;-75
2023/06/27 09:58:13;;;;;;;;;;;37.00;20.70;;;;;;6301540;22;19907;-75
2023/06/27 10:00:39;;;;;;;;;;;36.90;20.40;;;;;;6306134;22;20232;-76
2023/06/27 10:03:08;;;;;;;;;;;36.70;20.60;;;;;;6299807;22;19903;-75
2023/06/27 10:05:33;;;;;;;;;;;36.50;20.90;;;;;;6304420;22;19911;-76
2023/06/27 10:07:58;;;;;;;;;;;36.20;21.00;;;;;;6305825;22;19918;-77
2023/06/27 10:10:25;;;;;;;;;;;35.80;21.20;;;;;;6305581;22;19911;-76
2023/06/27 10:12:51;;;;;;;;;;;35.30;21.60;;;;;;6272996;22;19926;-74
2023/06/27 10:15:17;;;;;;;;;;;34.80;22.10;;;;;;6305815;22;19911;-74
2023/06/27 10:17:42;;;;;;;;;;;34.50;22.40;;;;;;6305169;22;19913;-75
2023/06/27 10:20:11;;;;;;;;;;;34.30;22.60;;;;;;6305364;22;19919;-77
2023/06/27 10:22:38;;;;;;;;;;;34.00;22.90;;;;;;6298799;22;20342;-76
2023/06/27 10:25:08;;;;;;;;;;;34.10;23.30;;;;;;6305049;22;20008;-75
2023/06/27 10:27:35;;;;;;;;;;;34.50;23.60;;;;;;6277662;22;19914;-74
2023/06/27 10:30:18;;;;;;;;;;;35.00;23.40;;;;;;6303629;22;19957;-74
2023/06/27 10:32:43;;;;;;;;;;;35.30;22.90;;;;;;6297728;22;19914;-74
2023/06/27 10:35:10;;;;;;;;;;;35.30;22.70;;;;;;6277939;22;20245;-75
2023/06/27 10:37:38;;;;;;;;;;;35.40;22.20;;;;;;6305593;22;19906;-75
2023/06/27 10:40:04;;;;;;;;;;;35.30;22.20;;;;;;6305299;22;19911;-74
2023/06/27 10:42:31;;;;;;;;;;;35.30;22.20;;;;;;6300374;22;19981;-74
2023/06/27 10:45:09;;;;;;;;;;;35.40;22.20;;;;;;6305320;22;20201;-74
2023/06/27 10:47:44;;;;;;;;;;;35.90;22.30;;;;;;6305072;22;19907;-75
2023/06/27 10:50:09;;;;;;;;;;;36.30;21.90;;;;;;6307712;22;19918;-75
2023/06/27 10:52:35;;;;;;;;;;;36.40;21.50;;;;;;6308825;22;19906;-75
2023/06/27 10:55:18;;;;;;;;;;;36.30;21.30;;;;;;6308551;22;19911;-75
2023/06/27 10:58:02;;;;;;;;;;;36.40;21.60;;;;;;6308826;22;19903;-75
2023/06/27 11:00:31;;;;;;;;;;;36.70;21.50;;;;;;6309061;22;19910;-75
2023/06/27 11:02:57;;;;;;;;;;;36.80;21.10;;;;;;6308950;22;19978;-75
2023/06/27 11:05:42;;;;;;;;;;;36.70;20.70;;;;;;6309252;22;19911;-76
2023/06/27 11:08:08;;;;;;;;;;;36.30;20.80;;;;;;6308659;22;20233;-76
2023/06/27 11:10:34;;;;;;;;;;;36.10;21.30;;;;;;6308985;22;20271;-75
2023/06/27 11:13:12;;;;;;;;;;;36.10;21.50;;;;;;6308621;22;19903;-74
2023/06/27 11:15:38;;;;;;;;;;;36.10;21.40;;;;;;6308946;22;19910;-74
2023/06/27 11:18:04;;;;;;;;;;;36.30;21.10;;;;;;6308593;22;19903;-74
2023/06/27 11:20:30;;;;;;;;;;;36.50;21.30;;;;;;6308699;22;20244;-73
2023/06/27 11:22:55;;;;;;;;;;;36.60;21.10;;;;;;6308795;22;19910;-74
2023/06/27 11:25:21;;;;;;;;;;;36.70;21.00;;;;;;6308786;22;20371;-74
2023/06/27 11:27:47;;;;;;;;;;;36.70;21.00;;;;;;6308594;22;19907;-74
2023/06/27 11:30:15;;;;;;;;;;;36.80;20.90;;;;;;6308650;22;19957;-74
2023/06/27 11:32:41;;;;;;;;;;;37.00;20.90;;;;;;6308820;22;19961;-75
2023/06/27 11:35:07;;;;;;;;;;;37.00;20.70;;;;;;6309574;22;20332;-75
2023/06/27 11:37:33;;;;;;;;;;;37.10;20.90;;;;;;6308652;22;20320;-75
2023/06/27 11:40:07;;;;;;;;;;;37.30;20.90;;;;;;6308976;22;19993;-75
2023/06/27 11:42:33;;;;;;;;;;;37.30;20.80;;;;;;6308646;22;19910;-74
2023/06/27 11:44:59;;;;;;;;;;;37.40;20.60;;;;;;6281357;22;19914;-75
2023/06/27 11:47:25;;;;;;;;;;;37.40;20.70;;;;;;6308348;22;19914;-74
2023/06/27 11:49:50;;;;;;;;;;;37.50;20.80;;;;;;6308540;22;19903;-74
2023/06/27 11:52:15;;;;;;;;;;;37.80;20.70;;;;;;6280997;22;19907;-74
2023/06/27 11:54:48;;;;;;;;;;;38.00;20.20;;;;;;6308361;22;19903;-74
2023/06/27 11:57:14;;;;;;;;;;;38.00;20.20;;;;;;6308495;22;19910;-76
2023/06/27 11:59:39;;;;;;;;;;;38.00;19.90;;;;;;6308562;22;19909;-75
2023/06/27 12:02:05;;;;;;;;;;;37.80;19.80;;;;;;6306900;22;19914;-76
2023/06/27 12:04:30;;;;;;;;;;;37.80;20.00;;;;;;6307214;22;19934;-76
2023/06/27 12:07:14;;;;;;;;;;;37.70;19.90;;;;;;6307238;22;19915;-76
2023/06/27 12:09:39;;;;;;;;;;;37.60;19.70;;;;;;6279531;22;19907;-76
2023/06/27 12:12:05;;;;;;;;;;;37.70;19.90;;;;;;6279540;22;19933;-76
2023/06/27 12:14:31;;;;;;;;;;;37.80;19.80;;;;;;6306730;22;19934;-76
2023/06/27 12:16:56;;;;;;;;;;;37.90;19.60;;;;;;6306178;22;20258;-74
2023/06/27 12:19:22;;;;;;;;;;;37.90;19.40;;;;;;6304549;22;19935;-76
2023/06/27 12:21:48;;;;;;;;;;;37.80;19.40;;;;;;6305006;22;19907;-76
2023/06/27 12:24:14;;;;;;;;;;;37.70;19.50;;;;;;6304439;22;19969;-76
2023/06/27 12:26:39;;;;;;;;;;;37.80;19.80;;;;;;6305301;22;19918;-76
2023/06/27 12:29:06;;;;;;;;;;;37.80;19.90;;;;;;6304597;22;19907;-76
2023/06/27 12:31:31;;;;;;;;;;;37.70;19.60;;;;;;6277617;22;20356;-76
2023/06/27 12:33:59;;;;;;;;;;;37.50;19.60;;;;;;6279089;22;19907;-76
2023/06/27 12:36:25;;;;;;;;;;;37.30;19.60;;;;;;6307093;22;19913;-76
2023/06/27 12:38:51;;;;;;;;;;;37.30;19.80;;;;;;6306643;22;19914;-76
2023/06/27 12:41:17;;;;;;;;;;;37.30;19.70;;;;;;6306937;22;19934;-75
2023/06/27 12:43:42;;;;;;;;;;;37.30;19.70;;;;;;6306932;22;19907;-74
2023/06/27 12:46:08;;;;;;;;;;;37.10;19.80;;;;;;6307041;22;20372;-75
2023/06/27 12:48:34;;;;;;;;;;;36.90;19.80;;;;;;6306491;22;20329;-75
2023/06/27 12:50:59;;;;;;;;;;;36.80;19.80;;;;;;6306781;22;19914;-75
2023/06/27 12:53:25;;;;;;;;;;;36.60;19.80;;;;;;6306386;22;19906;-76
2023/06/27 12:55:50;;;;;;;;;;;36.30;20.00;;;;;;6306562;22;20366;-75
2023/06/27 12:58:16;;;;;;;;;;;36.20;20.10;;;;;;6278724;22;19913;-74
2023/06/27 13:00:42;;;;;;;;;;;36.00;20.40;;;;;;6279362;22;20356;-76
2023/06/27 13:03:08;;;;;;;;;;;35.80;20.60;;;;;;6306295;22;19907;-75
2023/06/27 13:05:33;;;;;;;;;;;35.80;20.70;;;;;;6306495;22;20318;-75
2023/06/27 13:07:58;;;;;;;;;;;35.70;20.80;;;;;;6306120;22;19911;-75
2023/06/27 13:10:27;;;;;;;;;;;35.70;21.00;;;;;;6306340;22;19911;-76
2023/06/27 13:12:54;;;;;;;;;;;35.60;21.30;;;;;;6305590;22;19957;-75
2023/06/27 13:15:19;;;;;;;;;;;35.70;21.40;;;;;;6279129;22;19911;-75
2023/06/27 13:17:46;;;;;;;;;;;35.80;21.40;;;;;;6306398;22;20283;-75
2023/06/27 13:20:12;;;;;;;;;;;35.80;21.40;;;;;;6306132;22;19917;-75
2023/06/27 13:22:39;;;;;;;;;;;35.70;21.50;;;;;;6306203;22;19911;-76
2023/06/27 13:25:04;;;;;;;;;;;35.50;21.70;;;;;;6306261;22;19914;-76
2023/06/27 13:27:31;;;;;;;;;;;35.40;21.90;;;;;;6305974;22;19915;-75
2023/06/27 13:29:57;;;;;;;;;;;35.40;22.10;;;;;;6306139;22;19907;-75
2023/06/27 13:32:23;;;;;;;;;;;35.30;22.30;;;;;;6306412;22;19907;-75
2023/06/27 13:34:48;;;;;;;;;;;35.30;22.40;;;;;;6306334;22;19929;-76
2023/06/27 13:37:14;;;;;;;;;;;35.50;22.30;;;;;;6305981;22;19994;-74
2023/06/27 13:39:39;;;;;;;;;;;35.30;22.30;;;;;;6306140;22;19953;-76
2023/06/27 13:42:05;;;;;;;;;;;35.30;22.10;;;;;;6305892;22;19914;-74
2023/06/27 13:44:30;;;;;;;;;;;35.20;22.20;;;;;;6305981;22;20271;-74
2023/06/27 13:46:56;;;;;;;;;;;35.20;22.20;;;;;;6306235;22;19915;-74
2023/06/27 13:49:21;;;;;;;;;;;35.20;22.50;;;;;;6306075;22;20321;-75
2023/06/27 13:51:47;;;;;;;;;;;35.30;22.60;;;;;;6306297;22;19952;-75
2023/06/27 13:54:12;;;;;;;;;;;35.30;22.60;;;;;;6305785;22;19938;-74
2023/06/27 13:56:37;;;;;;;;;;;35.50;22.40;;;;;;6306282;22;19927;-76
2023/06/27 13:59:03;;;;;;;;;;;35.50;22.30;;;;;;6305808;22;19910;-75
2023/06/27 14:01:29;;;;;;;;;;;35.40;22.40;;;;;;6306132;22;19918;-73
2023/06/27 14:03:55;;;;;;;;;;;35.20;22.60;;;;;;6305969;22;20232;-75
2023/06/27 14:06:21;;;;;;;;;;;35.20;22.80;;;;;;6306070;22;19911;-75
2023/06/27 14:08:46;;;;;;;;;;;35.10;22.90;;;;;;6305712;22;19929;-75
2023/06/27 14:11:13;;;;;;;;;;;35.10;22.80;;;;;;6278608;22;20017;-75